AddedLatest Added eBooks:

  1. 2020-11-10Safeguard 2020 HDRip XviD AC3-EVO
  2. 2020-11-10Still Today 2020 HDRip XviD AC3-EVO
  3. 2020-11-10The Dark Divide 2020 HDRip XviD AC3-EVO
  4. 2020-11-10The Key to Christmas 2020 HDRip XviD AC3-EVO
  5. 2020-11-10Words On Bathroom Walls 2020 HDRip XviD AC3-EVO
  6. 2020-11-10Safeguard 2020 1080p WEB-DL DD5 1 H 264-EVO
  7. 2020-11-10The Key to Christmas 2020 1080p WEB-DL DD5 1 H 264-EVO
  8. 2020-11-10Contracts 2020 1080p WEB-DL DD2 0 H 264-EVO
  9. 2020-11-10Jungleland 2020 1080p WEB-DL DD5 1 H 264-EVO
  10. 2020-11-10Moments in Spacetime 2020 1080p WEB-DL DD2 0 H 264-EVO
  11. 2020-11-10Still Today 2020 1080p WEB-DL DD5 1 H 264-EVO
  12. 2020-11-10The Dark Divide 2020 1080p WEB-DL DD2 0 H 264-EVO
  13. 2020-11-10Words On Bathroom Walls 2020 AMZN 1080p WEB-DL H264 DDP5 1-EVO
  14. 2020-11-10Words On Bathroom Walls 2020 720p WEBRip 800MB x264-GalaxyRG
  15. 2020-11-10The Retreat 2020 1080p AMZN WEB-DL DDP5 1 H 264-NTG
  16. 2020-11-10The Retreat 2020 720p AMZN WEB-DL DDP5 1 H 264-NTG
  17. 2020-11-10The Retreat 2020 HDRip XviD AC3-EVO
  18. 2020-11-10The Shaolin Temple (1982) 1080p BluRay DTS5.1 x264-WiKi
  19. 2020-11-10Tales from the Hood 3 2020 1080p BluRay x264-SOIGNEUR
  20. 2020-11-1090 Day Fiance Pillow Talk S05E35 Fight or Flight 720p HEVC x265-MeGusta
  21. 2020-11-10Tipard Video Converter Ultimate 10.1.6 Final Rus
  22. 2020-11-10The Final 2010 1080p BluRay x265-RARBG
  23. 2020-11-10Backuptrans Android iPhone Line Transfer Plus 3.1.51 (x64)
  24. 2020-11-10FotoWorks XL 2021 21.0.0 Multilingual
  25. 2020-11-10Richardson Software RazorSQL 9.2.3
  26. 2020-11-10Strike S01E03 720p HEVC x265-MeGusta
  27. 2020-11-10Video Rotator 4.7
  28. 2020-11-10TriSun PDF to JPG 17.0 Build 070 Multilingual
  29. 2020-11-10WebAcappellaFx 1.4.34 Multilingual
  30. 2020-11-10PVS-Studio 7.10.43223
  31. 2020-11-10SweetScape 010 Editor 11.0.1
  32. 2020-11-10Still Today 2020 720p WEB-DL XviD AC3-FGT
  33. 2020-11-10Regular Expressions In JavaScript: The Animated Guide (2020)
  34. 2020-11-10Jimmy Kimmel 2020 11 09 Taraji P Henson 720p HEVC x265-MeGusta
  35. 2020-11-10The New Mutants (2020) 1080p BluRay x264 DTS-FGT - Removed
  36. 2020-11-10Viscosity 1.9.0.1694 Multilingual
  37. 2020-11-10TuneKeep Spotify Music Converter 3.0.5 Multilingual
  38. 2020-11-10Jungleland 2019 720p WEB-DL XviD AC3-FGT
  39. 2020-11-10Human Resource Management (HRM) and Strategic HR
  40. 2020-11-10Tales from the Hood 3 2020 BRRip XviD AC3-EVO
  41. 2020-11-10Gforce Software M-Tron Pro 3.0.4 Inc KeyMaker-R2R - Removed
  42. 2020-11-10Horrid Henrys Gross Day Out 2020 1080p WEBRip x264-RARBG
  43. 2020-11-10Microsoft Office Professional Plus 2016-2019 Retail-VL Version 2010 (Build 13328.20292) (x86) Mul...
  44. 2020-11-10Homemade Apothecary
  45. 2020-11-10Xara Photo & Graphic Designer 17.1.0.60486
  46. 2020-11-10Tales from the Hood 3 2020 720p BRRip XviD AC3-XVID
  47. 2020-11-10Python Spark and Machine Learning
  48. 2020-11-10ChrisPC DNS Switch Pro 4.30
  49. 2020-11-10SolidWorks 2019 SP5.1 Full Premium (x64) Multilingual
  50. 2020-11-10Infrared RAW Photography Post Processing in Photoshop CC 2021
  51. 2020-11-10MediaHuman YouTube To MP3 Converter 3.9.9.49 (0911) Multilingual
  52. 2020-11-10The Voice S19E06 720p HEVC x265-MeGusta
  53. 2020-11-10NextUp TextAloud 4.0.56
  54. 2020-11-10Penetration Testing Fundamentals
  55. 2020-11-10Solid Converter PDF 10.1.11102.4312 Multilingual
  56. 2020-11-10Programming TelePrompter 2.3.0
  57. 2020-11-10Photoshop Wizard
  58. 2020-11-10Adobe Photoshop cc 2021: How to replace the sky in ANY image
  59. 2020-11-10Killer in Question S01E02 The Girl in the Lake 720p HEVC x265-MeGusta
  60. 2020-11-10Tales from the Hood 3 2020 BRRip XviD AC3-EVO
  61. 2020-11-10Trumped Inside the Greatest Political Upset of All Time 2017 1080p WEBRip x265-RARBG
  62. 2020-11-10XY Chelsea 2019 1080p WEBRip x265-RARBG
  63. 2020-11-10Sentiment Analysis with NLP using Python and Flask
  64. 2020-11-10After the Wave 2014 1080p WEBRip x265-RARBG
  65. 2020-11-10The Voice S19E06 1080p HEVC x265-MeGusta
  66. 2020-11-10High Availability and Scalability for Associate AWS Solutions Architects
  67. 2020-11-10Pin Up The Movie 2015 1080p WEBRip x265-RARBG
  68. 2020-11-10Contracts 2019 1080p WEBRip x264-RARBG
  69. 2020-11-10Deep in the Valley 2009 1080p WEBRip x265-RARBG
  70. 2020-11-10Strike S01E01 720p HEVC x265-MeGusta
  71. 2020-11-10Moments in Spacetime 2020 1080p WEBRip x264-RARBG
  72. 2020-11-10Strike S02E02 1080p HEVC x265-MeGusta
  73. 2020-11-10Strike S03E02 720p HEVC x265-MeGusta
  74. 2020-11-10Words On Bathroom Walls 2020 1080p WEBRip x264-RARBG
  75. 2020-11-10Requiem for a Dream 2000 1080p BluRay x264 DTS-HD MA 7 1-SWTYBLZ
  76. 2020-11-10Dash and Lily S01E03 720p HEVC x265-MeGusta
  77. 2020-11-10Strike S03E02 1080p HEVC x265-MeGusta
  78. 2020-11-10Tales from the Hood 3 2020 1080p BluRay H264 AAC-RARBG
  79. 2020-11-10The Retreat 2020 1080p WEBRip x264-RARBG
  80. 2020-11-10The Greatest Gift Ever Given 2020 1080p WEBRip x264-RARBG
  81. 2020-11-10Funke 2018 1080p WEBRip x265-RARBG
  82. 2020-11-10Happily Never After 2017 1080p WEBRip x265-RARBG
  83. 2020-11-10Tales from The Hood 3 2020 720p BluRay H264 AAC-RARBG
  84. 2020-11-10James Van Elswyk (iStack Training) - Native Ads Master Class (Update 1)
  85. 2020-11-10Slightly Scarlet 1956 1080p WEBRip x265-RARBG
  86. 2020-11-10Tales from The Hood 3 2020 1080p BluRay H264 AAC-RARBG
  87. 2020-11-10Dash and Lily S01E05 720p HEVC x265-MeGusta
  88. 2020-11-10Dick Johnson Is Dead 2020 720p WEB h264-OPUS
  89. 2020-11-10Dick Johnson Is Dead 2020 1080p WEB h264-OPUS
  90. 2020-11-10The Advocate 1993 1080p WEBRip x265-RARBG
  91. 2020-11-10The Social Dilemma 2020 720p WEB h264-OPUS
  92. 2020-11-10Still Today 2020 1080p WEBRip x264-RARBG
  93. 2020-11-10The Social Dilemma 2020 1080p WEB h264-OPUS
  94. 2020-11-10Rom Boys 40 Years of Rad 2020 1080p WEBRip x264-RARBG
  95. 2020-11-10Resilience and the Lost Gems 2019 1080p WEBRip x264-RARBG
  96. 2020-11-10Safeguard 2020 1080p WEBRip x264-RARBG
  97. 2020-11-10CPA Mastermind Group with Brandon Belcher
  98. 2020-11-10Jungleland 2019 1080p WEBRip x264-RARBG
  99. 2020-11-10CGMA - FX for Games 2019

More eBooks ...

47557 pages, 4755696 eBooks in total, list all pages->

Search free ebooks in ebookee.com!
Back to Top